Olga, Minnesota
Current Conditions -  °F | °C
As of 1:15 PM on Saturday 20 Dec 2014 (Local Time) from KFSE Reporting Station
Haze Haze  
Wind Chill: 17°   Ceiling: 400
Heat Index: 27°   Visibility: 2.5mi
Dew Point: 27°   Wind: 10mph
Humidity: 100%   Direction: 180°S
Pressure: 29.99"   Gusts: NA
Location:  47.8043°N, 95.6441°W
Report Text: KFSE 201915Z AUTO 18009KT 2 1/2SM BR OVC004 M03/M03 A2999 RMK AO2
Loading
Personal Weather Stations






























Interactive Weather Map New forecast layout! Learn more

10-Day Weather Forecast

Advertisements
Track Severe Weather on mobile